"WATCHING THE WEATHER TO PROTECT LIFE AND PROPERTY"


Aviation
Satellite (InfraRed)


TNCA 041400Z 11018KT 9999 BKN024 28/21 Q1014 NOSIG
TNCB 041355Z AUTO 10014KT 070V130 9999 SCT020/// SCT030/// 27/21 Q1015
TNCC 041400Z 10012KT 9999 SCT020 28/21 Q1015 NOSIG